Martinsville, IL (62442)

2:49 PM CDT on July 28, 2014 (GMT -0500)
Marshall Golf Course (KILMARSH2) Elev 601 ft | 39.41 °N, 87.68 °W | Change Station

Current weather conditions updated 5 seconds ago

Partly Cloudy
Partly Cloudy
75.3 °F
Feels Like 78 °F
N
6.6
Wind Variable Wind from NNW
Gusts 11.5 mph

Today is forecast to be Much Cooler than yesterday.

Today
High -- | Low -- °F
--% Chance of Precip.
Yesterday
High -- | Low -- °F
Precip. -- in
5:47 AM 8:07 PM
Waxing Crescent, 3% visible
Pressure 30.06 in
Visibility 10.0 miles
Clouds Few 3300 ft
Heat Index 78 °F
Dew Point 56 °F
Humidity 51%
Rainfall 0.00 in
Snow Depth Not available.
UV 10 out of 12
Pollen 6.90 out of 12
Air Quality Not available.
Flu Activity Not available.
METAR KMTO 281653Z AUTO 35012KT 10SM FEW033 22/13 A3007 RMK AO2 SLP177 T02220128

More Conditions Fewer Conditions

Pressure 30.06 in
Visibility 10.0 miles
Clouds Few 3300 ft
Heat Index 78 °F
Dew Point 56 °F
Humidity 51%
Rainfall 0.00 in
Snow Depth Not available.
UV 10 out of 12
Pollen 6.90 out of 12
Air Quality Not available.
Flu Activity Not available.
METAR KMTO 281653Z AUTO 35012KT 10SM FEW033 22/13 A3007 RMK AO2 SLP177 T02220128

More Conditions Fewer Conditions

10-Day Weather Forecast

Almanac

Astronomy

Jul. 28, 2014 Rise Set
Actual Time 5:47 AM CDT 8:07 PM CDT
Civil Twilight 5:17 AM CDT 8:37 PM CDT
Nautical Twilight 4:40 AM CDT 9:15 PM CDT
Astronomical Twilight 3:59 AM CDT 9:55 PM CDT
Moon 7:28 AM CDT 8:50 PM CDT
Length of Visible Light 15h 20m
Length of Day
14h 19m
Tomorrow will be 1m 50s shorter.
Waxing Crescent, 3% of the Moon is Illuminated
Today
Waxing Crescent
Aug 3
First Quarter
Aug 10
Full
Aug 17
Last Quarter
Aug 25
New

Today's Extremes

State Highs State Lows

Community

WunderPhotos

Upload Photos

1,738,465 photos uploaded!

Nearby

Snow Depth

Station Depth Elevation
No new snow has been reported.

Earthquake Activity

City Distance Mag. Time & Date
No recent earthquake activity has been reported nearby.
Minimum magnitude displayed is 2.5.

Coastal Water Temperatures

Place Temperature
No Stations Reporting

Nearby Weather Stations

Station Location Temp. Heat Index Dew Point Humidity Wind Precip. Elev Updated Type
Marshall Golf Course, Marshall, IL 75.3 °F 78 °F 56 °F 51% NNW  at  6.6 mph 0.00 in / hr 601 ft 2:49 PM CDT Rapid Fire
Marshall, IL 73.0 °F 77 °F - 51% West  at  0.0 mph 0.00 in / hr 580 ft 2:45 PM CDT Normal
EIU Campus, Charleston, IL 72.8 °F 77 °F 52 °F 48% North  at  15.0 mph 0.00 in / hr 714 ft 2:49 PM CDT Rapid Fire
Charleston Country Club, Charleston, IL 72.6 °F 76 °F 58 °F 61% NNW  at  4.0 mph 0.00 in / hr 669 ft 2:49 PM CDT Rapid Fire
Westlake, Robinson, IL 73.7 °F 76 °F 60 °F 63% WSW  at  1.0 mph 0.00 in / hr 525 ft 2:49 PM CDT Rapid Fire

Show More Stations Show Fewer Stations